createdAt,value
2022-08-12T00:03:17.735Z,1.90
2022-08-12T00:14:01.818Z,1.50
2022-08-12T00:24:41.929Z,1.70
2022-08-12T00:46:17.029Z,1.90
2022-08-12T01:07:22.144Z,1.70
2022-08-12T01:17:45.208Z,1.83
2022-08-12T01:28:13.725Z,1.90
2022-08-12T01:38:36.205Z,1.65
2022-08-12T01:49:22.487Z,1.55
2022-08-12T02:00:05.021Z,1.50
2022-08-12T02:11:00.398Z,1.60
2022-08-12T02:21:38.343Z,1.95
2022-08-12T02:32:00.111Z,2.03
2022-08-12T02:42:25.060Z,1.88
2022-08-12T02:52:48.158Z,2.00
2022-08-12T03:03:11.925Z,2.08
2022-08-12T03:13:36.440Z,1.80
2022-08-12T03:24:00.399Z,1.80
2022-08-12T03:34:29.925Z,2.00
2022-08-12T03:45:31.353Z,1.83
2022-08-12T03:56:11.982Z,2.00
2022-08-12T04:06:35.939Z,2.33
2022-08-12T04:16:57.920Z,2.00
2022-08-12T04:27:19.766Z,2.35
2022-08-12T04:37:58.451Z,2.22
2022-08-12T04:48:22.397Z,2.45
2022-08-12T04:58:47.369Z,2.47
2022-08-12T05:09:13.635Z,2.10
2022-08-12T05:19:35.380Z,2.10
2022-08-12T05:30:07.787Z,2.00
2022-08-12T05:40:30.610Z,2.30
2022-08-12T05:50:53.162Z,2.22
2022-08-12T06:02:09.458Z,2.10
2022-08-12T06:12:05.808Z,2.20
2022-08-12T06:22:28.190Z,2.45
2022-08-12T06:33:11.443Z,2.90
2022-08-12T06:44:06.198Z,2.60
2022-08-12T06:54:14.203Z,2.60
2022-08-12T07:04:52.723Z,2.50
2022-08-12T07:15:14.267Z,2.15
2022-08-12T07:25:40.952Z,2.42
2022-08-12T07:36:03.614Z,2.58
2022-08-12T07:46:36.897Z,2.75
2022-08-12T07:56:58.804Z,2.55
2022-08-12T08:07:20.857Z,2.70
2022-08-12T08:18:02.832Z,2.50
2022-08-12T08:28:24.426Z,2.83
2022-08-12T08:38:53.142Z,2.55
2022-08-12T08:49:20.551Z,2.75
2022-08-12T08:59:42.180Z,2.60
2022-08-12T09:10:09.100Z,2.60
2022-08-12T09:20:34.946Z,2.70
2022-08-12T09:30:59.823Z,2.60
2022-08-12T09:42:34.424Z,2.33
2022-08-12T09:52:04.454Z,2.30
2022-08-12T10:02:41.839Z,1.95
2022-08-12T10:13:39.897Z,1.92
2022-08-12T10:24:05.051Z,2.03
2022-08-12T10:34:27.504Z,1.70
2022-08-12T10:44:49.778Z,1.67
2022-08-12T10:55:13.382Z,1.50
2022-08-12T11:07:10.200Z,1.60
2022-08-12T11:16:22.271Z,1.70
2022-08-12T11:26:44.999Z,1.60
2022-08-12T11:37:07.362Z,1.70
2022-08-12T11:47:49.267Z,1.85
2022-08-12T11:59:28.648Z,1.90
2022-08-12T12:08:53.854Z,1.60
2022-08-12T12:19:17.711Z,1.65
2022-08-12T12:30:17.613Z,1.75
2022-08-12T12:40:29.840Z,1.60
2022-08-12T12:51:13.491Z,1.75
2022-08-12T13:01:42.190Z,1.65
2022-08-12T13:12:10.400Z,1.50
2022-08-12T13:22:32.878Z,1.40
2022-08-12T13:32:58.659Z,1.40
2022-08-12T13:43:41.107Z,1.40
2022-08-12T13:54:09.529Z,1.27
2022-08-12T14:04:33.431Z,1.30
2022-08-12T14:14:55.377Z,1.52
2022-08-12T14:25:17.772Z,1.45
2022-08-12T14:35:41.291Z,1.55
2022-08-12T14:46:15.570Z,1.50
2022-08-12T15:07:33.868Z,1.40
2022-08-12T15:18:02.025Z,1.20
2022-08-12T15:28:26.326Z,1.10
2022-08-12T15:38:48.963Z,1.20
2022-08-12T15:49:17.135Z,1.30
2022-08-12T16:00:00.304Z,1.38
2022-08-12T16:10:22.469Z,1.30
2022-08-12T16:20:52.506Z,1.33
2022-08-12T16:31:22.975Z,1.20
2022-08-12T16:41:45.582Z,1.30
2022-08-12T16:52:12.499Z,1.20
2022-08-12T17:02:36.863Z,1.45
2022-08-12T17:13:00.017Z,1.40
2022-08-12T17:23:28.550Z,1.65
2022-08-12T17:34:29.835Z,1.50
2022-08-12T17:44:52.639Z,1.40
2022-08-12T17:55:44.792Z,1.80
2022-08-12T18:06:01.562Z,1.70
2022-08-12T18:16:29.041Z,1.80
2022-08-12T18:26:50.790Z,1.88
2022-08-12T18:37:40.995Z,1.48
2022-08-12T18:47:58.456Z,1.73
2022-08-12T18:58:20.663Z,1.67
2022-08-12T19:08:47.175Z,1.73
2022-08-12T19:19:10.597Z,3.80
2022-08-12T19:29:44.126Z,2.08
2022-08-12T19:40:19.766Z,1.70
2022-08-12T19:50:53.380Z,1.67
2022-08-12T20:01:17.227Z,2.13
2022-08-12T20:12:09.644Z,1.60
2022-08-12T20:22:24.918Z,1.70
2022-08-12T20:32:56.408Z,1.85
2022-08-12T20:43:19.135Z,1.63
2022-08-12T20:53:54.090Z,1.50
2022-08-12T21:04:39.887Z,1.33
2022-08-12T21:15:17.197Z,3.30
2022-08-12T21:25:47.193Z,1.70
2022-08-12T21:36:14.442Z,1.80
2022-08-12T21:46:53.557Z,1.90
2022-08-12T21:57:15.357Z,1.98
2022-08-12T22:07:46.096Z,1.90
2022-08-12T22:18:16.058Z,1.77
2022-08-12T22:28:58.994Z,2.17
2022-08-12T22:39:20.636Z,1.73
2022-08-12T22:49:53.157Z,1.77
2022-08-12T23:00:24.120Z,1.80
2022-08-12T23:10:50.300Z,1.95
2022-08-12T23:21:14.557Z,1.63
2022-08-12T23:32:03.430Z,1.80
2022-08-12T23:42:19.938Z,1.90
2022-08-12T23:52:46.651Z,2.10
